Time;durP1;ratioP1;P1;durP2;ratioP2;P2;SDS_P1;SDS_P2;PMS_P1;PMS_P2;Temp;Humidity;BMP_temperature;BMP_pressure;BME280_temperature;BME280_humidity;BME280_pressure;Samples;Min_cycle;Max_cycle;Signal;HPM_P1;HPM_P2
2021/08/18 00:00:02;;;;;;;7.95;5.32;;;14.00;99.90;;;;;;5087066;28;20048;-52
2021/08/18 00:02:35;;;;;;;8.63;5.80;;;13.90;99.90;;;;;;5086910;28;20411;-56
2021/08/18 00:05:05;;;;;;;8.38;5.15;;;13.90;99.90;;;;;;5086974;28;20083;-56
2021/08/18 00:07:36;;;;;;;6.80;4.90;;;13.90;99.90;;;;;;5066343;28;20058;-56
2021/08/18 00:10:13;;;;;;;8.70;5.15;;;13.80;99.90;;;;;;5081530;28;20109;-54
2021/08/18 00:12:41;;;;;;;10.40;6.13;;;13.80;99.90;;;;;;5091931;28;20468;-56
2021/08/18 00:15:09;;;;;;;8.70;6.32;;;13.80;99.90;;;;;;5086590;28;20412;-56
2021/08/18 00:17:38;;;;;;;11.00;6.60;;;13.80;99.90;;;;;;5088227;28;20055;-55
2021/08/18 00:20:07;;;;;;;9.63;6.22;;;13.80;99.90;;;;;;5090348;28;20040;-56
2021/08/18 00:22:37;;;;;;;8.85;6.30;;;13.90;99.90;;;;;;5090336;28;20048;-53
2021/08/18 00:25:04;;;;;;;8.70;5.88;;;13.90;99.90;;;;;;5090355;28;20405;-55
2021/08/18 00:27:31;;;;;;;8.18;5.93;;;14.00;99.90;;;;;;5089723;28;20055;-56
2021/08/18 00:30:00;;;;;;;10.15;6.40;;;14.00;99.90;;;;;;5097751;28;20365;-55
2021/08/18 00:32:26;;;;;;;10.90;6.28;;;14.00;99.90;;;;;;5089412;28;20070;-56
2021/08/18 00:34:59;;;;;;;10.00;6.68;;;14.00;99.90;;;;;;5092487;28;20488;-56
2021/08/18 00:37:25;;;;;;;13.77;7.15;;;14.10;99.90;;;;;;5089634;28;20044;-56
2021/08/18 00:39:51;;;;;;;7.68;6.57;;;14.10;99.90;;;;;;5096438;28;20156;-54
2021/08/18 00:42:18;;;;;;;8.88;7.05;;;14.10;99.90;;;;;;5090364;28;20052;-55
2021/08/18 00:44:48;;;;;;;8.50;7.05;;;14.10;99.90;;;;;;5090752;28;20067;-56
2021/08/18 00:47:14;;;;;;;10.20;6.53;;;14.20;99.90;;;;;;5090144;28;20389;-55
2021/08/18 00:49:40;;;;;;;9.75;6.65;;;14.20;99.90;;;;;;5094673;28;20132;-56
2021/08/18 00:52:07;;;;;;;10.98;7.18;;;14.20;99.90;;;;;;5089657;28;20488;-56
2021/08/18 00:54:33;;;;;;;10.27;7.47;;;14.30;99.90;;;;;;5077516;28;20052;-56
2021/08/18 00:57:06;;;;;;;11.00;7.03;;;14.30;99.90;;;;;;5090030;28;20052;-54
2021/08/18 00:59:33;;;;;;;9.75;7.78;;;14.30;99.90;;;;;;5091345;28;20055;-57
2021/08/18 01:02:02;;;;;;;11.10;7.55;;;14.30;99.90;;;;;;5089471;28;20094;-56
2021/08/18 01:04:28;;;;;;;9.75;7.28;;;14.30;99.90;;;;;;5089611;28;20190;-57
2021/08/18 01:06:57;;;;;;;9.35;7.53;;;14.40;99.90;;;;;;5089912;28;20051;-56
2021/08/18 01:09:25;;;;;;;11.23;6.97;;;14.40;99.90;;;;;;5089421;28;20052;-57
2021/08/18 01:11:54;;;;;;;12.02;7.00;;;14.40;99.90;;;;;;5090950;28;20042;-56
2021/08/18 01:14:22;;;;;;;12.35;7.40;;;14.40;99.90;;;;;;5093573;28;20133;-56
2021/08/18 01:16:49;;;;;;;9.95;6.93;;;14.50;99.90;;;;;;5088346;28;20484;-57
2021/08/18 01:19:17;;;;;;;12.30;7.70;;;14.50;99.90;;;;;;5089167;28;20135;-55
2021/08/18 01:21:47;;;;;;;10.30;6.65;;;14.50;99.90;;;;;;5089519;28;20052;-54
2021/08/18 01:24:15;;;;;;;8.75;6.90;;;14.50;99.90;;;;;;5089230;28;20052;-57
2021/08/18 01:26:41;;;;;;;12.45;6.25;;;14.50;99.90;;;;;;5092257;28;20040;-56
2021/08/18 01:29:08;;;;;;;11.90;6.78;;;14.50;99.90;;;;;;5088719;28;20507;-56
2021/08/18 01:31:37;;;;;;;10.98;6.50;;;14.40;99.90;;;;;;5088406;28;20741;-56
2021/08/18 01:34:05;;;;;;;10.38;6.55;;;14.40;99.90;;;;;;5089892;28;20390;-57
2021/08/18 01:36:32;;;;;;;9.82;6.72;;;14.30;99.90;;;;;;5090315;28;20036;-56
2021/08/18 01:39:03;;;;;;;10.35;6.05;;;14.30;99.90;;;;;;5068414;28;20079;-56
2021/08/18 01:41:29;;;;;;;10.85;6.38;;;14.30;99.90;;;;;;5087971;28;20052;-57
2021/08/18 01:43:56;;;;;;;11.05;5.90;;;14.30;99.90;;;;;;5088968;28;20048;-56
2021/08/18 01:46:23;;;;;;;9.38;6.35;;;14.30;99.90;;;;;;5074325;28;20671;-56
2021/08/18 01:48:49;;;;;;;10.25;6.32;;;14.30;99.90;;;;;;5087764;28;20051;-56
2021/08/18 01:51:16;;;;;;;9.38;6.15;;;14.20;99.90;;;;;;5088434;28;20048;-56
2021/08/18 01:53:45;;;;;;;9.73;6.55;;;14.10;99.90;;;;;;5088543;28;20172;-56
2021/08/18 01:56:16;;;;;;;13.20;7.32;;;14.10;99.90;;;;;;5087818;28;20081;-57
2021/08/18 01:58:44;;;;;;;11.07;6.55;;;14.00;99.90;;;;;;5087518;28;20083;-56
2021/08/18 02:01:14;;;;;;;12.73;6.50;;;14.00;99.90;;;;;;5088775;28;20507;-56
2021/08/18 02:03:40;;;;;;;8.75;6.97;;;14.00;99.90;;;;;;5090124;28;20408;-56
2021/08/18 02:06:07;;;;;;;9.73;6.50;;;14.00;99.90;;;;;;5066784;28;20052;-56
2021/08/18 02:08:39;;;;;;;11.25;6.97;;;14.00;99.90;;;;;;5072869;28;20480;-56
2021/08/18 02:11:08;;;;;;;10.00;6.75;;;14.00;99.90;;;;;;5088805;28;20056;-56
2021/08/18 02:13:35;;;;;;;10.43;7.38;;;14.10;99.90;;;;;;5088135;28;20059;-56
2021/08/18 02:16:05;;;;;;;11.77;6.63;;;14.10;99.90;;;;;;5088263;28;20054;-56
2021/08/18 02:18:35;;;;;;;12.40;7.45;;;14.20;99.90;;;;;;5091907;28;20051;-56
2021/08/18 02:21:01;;;;;;;10.52;6.60;;;14.20;99.90;;;;;;5087313;28;20393;-57
2021/08/18 02:23:27;;;;;;;13.35;7.30;;;14.20;99.90;;;;;;5088418;28;20071;-57
2021/08/18 02:25:54;;;;;;;11.10;6.88;;;14.20;99.90;;;;;;5087409;28;20134;-57
2021/08/18 02:28:20;;;;;;;12.50;7.18;;;14.20;99.90;;;;;;5084618;28;20055;-57
2021/08/18 02:30:46;;;;;;;10.20;6.95;;;14.20;99.90;;;;;;5087261;28;20736;-57
2021/08/18 02:33:13;;;;;;;10.02;7.30;;;14.30;99.90;;;;;;5069790;28;20873;-56
2021/08/18 02:35:40;;;;;;;10.05;6.50;;;14.30;99.90;;;;;;5068818;28;20068;-56
2021/08/18 02:38:11;;;;;;;10.40;6.65;;;14.30;99.90;;;;;;5087630;28;20048;-56
2021/08/18 02:40:40;;;;;;;11.77;7.20;;;14.30;99.90;;;;;;5086184;28;20189;-57
2021/08/18 02:43:08;;;;;;;10.38;6.88;;;14.30;99.90;;;;;;5087721;28;20486;-56
2021/08/18 02:45:37;;;;;;;14.80;6.65;;;14.30;99.90;;;;;;5087669;28;20072;-56
2021/08/18 02:48:06;;;;;;;10.15;6.20;;;14.30;99.90;;;;;;5086968;28;20043;-56
2021/08/18 02:50:33;;;;;;;10.07;6.78;;;14.30;99.90;;;;;;5094299;28;20054;-57
2021/08/18 02:53:02;;;;;;;11.55;6.47;;;14.20;99.90;;;;;;5086684;28;20075;-56
2021/08/18 02:55:31;;;;;;;11.65;6.40;;;14.20;99.90;;;;;;5087651;28;20121;-57
2021/08/18 02:57:58;;;;;;;9.23;6.15;;;14.20;99.90;;;;;;5087202;28;20052;-56
2021/08/18 03:00:24;;;;;;;12.00;6.60;;;14.20;99.90;;;;;;5086725;28;20052;-57
2021/08/18 03:02:51;;;;;;;11.85;7.18;;;14.20;99.90;;;;;;5094209;28;20036;-57
2021/08/18 03:05:20;;;;;;;12.27;6.70;;;14.20;99.90;;;;;;5088910;28;20055;-57
2021/08/18 03:07:50;;;;;;;12.00;6.63;;;14.20;99.90;;;;;;5090252;28;20468;-57
2021/08/18 03:10:18;;;;;;;12.88;6.53;;;14.30;99.90;;;;;;5087279;28;20146;-57
2021/08/18 03:12:50;;;;;;;10.13;6.10;;;14.30;99.90;;;;;;5086280;28;20044;-57
2021/08/18 03:15:18;;;;;;;11.75;6.75;;;14.30;99.90;;;;;;5088833;28;20044;-57
2021/08/18 03:17:47;;;;;;;10.32;6.50;;;14.40;99.90;;;;;;5065881;28;20049;-57
2021/08/18 03:20:14;;;;;;;14.98;6.78;;;14.40;99.90;;;;;;5066819;28;20072;-57
2021/08/18 03:22:43;;;;;;;10.95;5.90;;;14.40;99.90;;;;;;5086224;28;20164;-57
2021/08/18 03:25:09;;;;;;;9.25;6.20;;;14.40;99.90;;;;;;5086725;28;20052;-57
2021/08/18 03:27:38;;;;;;;10.35;7.20;;;14.40;99.90;;;;;;5087112;28;20538;-57
2021/08/18 03:30:09;;;;;;;10.90;7.00;;;14.40;99.90;;;;;;5086827;28;20511;-57
2021/08/18 03:32:37;;;;;;;8.95;6.20;;;14.50;99.90;;;;;;5086353;28;20412;-57
2021/08/18 03:35:06;;;;;;;8.50;6.90;;;14.40;99.90;;;;;;5086409;28;20059;-57
2021/08/18 03:37:33;;;;;;;12.90;6.50;;;14.50;99.90;;;;;;5086660;28;20044;-57
2021/08/18 03:40:00;;;;;;;9.82;6.35;;;14.50;99.90;;;;;;5086264;28;20048;-57
2021/08/18 03:42:26;;;;;;;9.38;6.13;;;14.50;99.90;;;;;;5091363;28;20041;-57
2021/08/18 03:44:52;;;;;;;12.05;6.95;;;14.50;99.90;;;;;;5064439;28;20074;-58
2021/08/18 03:47:21;;;;;;;9.48;6.32;;;14.60;99.90;;;;;;5083099;28;20048;-58
2021/08/18 03:49:48;;;;;;;9.95;6.53;;;14.60;99.90;;;;;;5086139;28;20428;-57
2021/08/18 03:52:14;;;;;;;9.23;6.25;;;14.60;99.90;;;;;;5090640;28;20108;-57
2021/08/18 03:54:43;;;;;;;12.15;6.63;;;14.60;99.90;;;;;;5090476;28;20465;-57
2021/08/18 03:57:17;;;;;;;10.48;6.35;;;14.60;99.90;;;;;;5091231;28;20083;-57
2021/08/18 03:59:48;;;;;;;9.30;6.07;;;14.60;99.90;;;;;;5075855;28;20067;-58
2021/08/18 04:02:14;;;;;;;10.10;6.47;;;14.60;99.90;;;;;;5090751;28;20056;-57
2021/08/18 04:04:43;;;;;;;12.00;6.72;;;14.60;99.90;;;;;;5090528;28;20504;-57
2021/08/18 04:07:11;;;;;;;8.35;5.40;;;14.60;99.90;;;;;;5094959;28;20065;-56
2021/08/18 04:09:40;;;;;;;10.93;5.93;;;14.60;99.90;;;;;;5090481;28;20657;-57
2021/08/18 04:12:09;;;;;;;12.03;5.70;;;14.60;99.90;;;;;;5091289;28;20507;-57
2021/08/18 04:14:39;;;;;;;11.25;5.75;;;14.60;99.90;;;;;;5090246;28;20052;-58
2021/08/18 04:17:08;;;;;;;7.30;5.53;;;14.70;99.90;;;;;;5068237;28;20064;-57
2021/08/18 04:19:36;;;;;;;9.05;5.10;;;14.70;99.90;;;;;;5073898;28;20547;-58
2021/08/18 04:22:04;;;;;;;9.63;5.97;;;14.70;99.90;;;;;;5090208;28;20055;-57
2021/08/18 04:24:40;;;;;;;10.52;6.03;;;14.60;99.90;;;;;;5089099;28;20093;-57
2021/08/18 04:27:08;;;;;;;10.45;5.85;;;14.70;99.90;;;;;;5072174;28;20573;-57
2021/08/18 04:29:37;;;;;;;9.35;6.05;;;14.70;99.90;;;;;;5074671;28;20132;-57
2021/08/18 04:32:09;;;;;;;10.25;5.35;;;14.70;99.90;;;;;;5089925;28;20102;-58
2021/08/18 04:34:36;;;;;;;8.30;4.95;;;14.70;99.90;;;;;;5071340;28;20951;-57
2021/08/18 04:37:03;;;;;;;10.43;5.72;;;14.70;99.90;;;;;;5089965;28;20052;-57
2021/08/18 04:39:33;;;;;;;9.48;5.57;;;14.70;99.90;;;;;;5090279;28;20051;-57
2021/08/18 04:42:02;;;;;;;11.00;5.72;;;14.70;99.90;;;;;;5088669;28;20134;-57
2021/08/18 04:44:30;;;;;;;11.93;5.60;;;14.70;99.90;;;;;;5071783;28;20048;-56
2021/08/18 04:46:57;;;;;;;8.93;5.40;;;14.70;99.90;;;;;;5089995;28;20488;-57
2021/08/18 04:49:25;;;;;;;9.23;5.47;;;14.70;99.90;;;;;;5092532;28;20503;-56
2021/08/18 04:51:55;;;;;;;10.10;6.30;;;14.70;99.90;;;;;;5089908;28;20056;-56
2021/08/18 04:54:24;;;;;;;9.40;5.75;;;14.70;99.90;;;;;;5090001;28;20055;-57
2021/08/18 04:56:55;;;;;;;7.93;4.97;;;14.70;99.90;;;;;;5090047;28;20077;-57
2021/08/18 04:59:26;;;;;;;9.63;5.53;;;14.70;99.90;;;;;;5089251;28;20063;-57
2021/08/18 05:01:53;;;;;;;8.98;5.45;;;14.70;99.90;;;;;;5089540;28;20192;-57
2021/08/18 05:04:20;;;;;;;9.00;6.00;;;14.80;99.90;;;;;;5071380;28;20069;-57
2021/08/18 05:06:48;;;;;;;11.02;6.20;;;14.80;99.90;;;;;;5089189;28;20066;-57
2021/08/18 05:09:15;;;;;;;9.93;5.72;;;14.90;99.90;;;;;;5084182;28;20820;-58
2021/08/18 05:11:43;;;;;;;9.30;5.90;;;14.90;99.90;;;;;;5088837;28;20052;-58
2021/08/18 05:14:11;;;;;;;11.10;6.45;;;15.00;99.90;;;;;;5087658;28;20144;-58
2021/08/18 05:16:40;;;;;;;8.52;5.97;;;15.10;99.90;;;;;;5069334;28;20040;-57
2021/08/18 05:19:09;;;;;;;10.02;6.45;;;15.20;99.90;;;;;;5086657;28;20048;-58
2021/08/18 05:21:38;;;;;;;11.75;7.35;;;15.20;99.90;;;;;;5088882;28;20167;-59
2021/08/18 05:24:07;;;;;;;18.13;12.40;;;15.30;99.90;;;;;;5082771;28;20052;-57
2021/08/18 05:26:37;;;;;;;20.42;14.20;;;15.30;99.90;;;;;;5088808;28;20086;-59
2021/08/18 05:29:04;;;;;;;14.05;8.32;;;15.30;99.90;;;;;;5079281;28;20056;-59
2021/08/18 05:31:40;;;;;;;16.27;11.55;;;15.40;99.90;;;;;;5088414;28;20112;-57
2021/08/18 05:34:15;;;;;;;14.77;9.90;;;15.40;99.90;;;;;;5088609;28;20064;-58
2021/08/18 05:37:01;;;;;;;13.00;8.40;;;15.40;99.90;;;;;;5090519;28;20062;-59
2021/08/18 05:39:33;;;;;;;9.98;6.32;;;15.40;99.90;;;;;;5090937;28;20035;-58
2021/08/18 05:42:00;;;;;;;13.48;7.20;;;15.50;99.90;;;;;;5088240;28;20130;-57
2021/08/18 05:44:31;;;;;;;18.92;9.95;;;15.50;99.90;;;;;;5085512;28;20160;-59
2021/08/18 05:46:58;;;;;;;10.57;7.10;;;15.40;99.90;;;;;;5068842;28;20135;-59
2021/08/18 05:49:27;;;;;;;8.85;6.05;;;15.50;99.90;;;;;;5068417;28;20050;-61
2021/08/18 05:51:54;;;;;;;16.25;9.07;;;15.50;99.90;;;;;;5085763;28;20036;-58
2021/08/18 05:54:22;;;;;;;15.07;8.45;;;15.50;99.90;;;;;;5087405;28;20043;-58
2021/08/18 05:56:53;;;;;;;10.82;7.05;;;15.50;99.90;;;;;;5078273;28;20052;-60
2021/08/18 05:59:19;;;;;;;13.27;8.18;;;15.50;99.90;;;;;;5087650;28;20044;-59
2021/08/18 06:01:45;;;;;;;11.98;8.68;;;15.40;99.90;;;;;;5081801;28;20162;-59
2021/08/18 06:04:15;;;;;;;8.50;6.25;;;15.40;99.90;;;;;;5043874;28;20070;-60
2021/08/18 06:06:43;;;;;;;9.00;7.13;;;15.40;99.90;;;;;;5088278;28;20831;-58
2021/08/18 06:09:14;;;;;;;11.80;7.25;;;15.40;99.90;;;;;;5069647;28;20101;-56
2021/08/18 06:11:43;;;;;;;10.88;5.75;;;15.50;99.90;;;;;;5065959;28;20051;-58
2021/08/18 06:14:10;;;;;;;11.35;6.45;;;15.40;99.90;;;;;;5084605;28;20559;-59
2021/08/18 06:16:44;;;;;;;13.30;6.72;;;15.40;99.90;;;;;;5082232;28;20040;-58
2021/08/18 06:19:12;;;;;;;46.28;38.65;;;15.40;99.90;;;;;;5086803;28;20205;-58
2021/08/18 06:21:41;;;;;;;105.32;94.32;;;15.40;99.90;;;;;;5081287;28;20126;-59
2021/08/18 06:24:27;;;;;;;12.98;6.82;;;15.50;99.90;;;;;;5077719;28;20063;-58
2021/08/18 06:26:57;;;;;;;19.05;15.90;;;15.40;99.90;;;;;;5068041;28;20101;-57
2021/08/18 06:29:24;;;;;;;11.55;6.68;;;15.40;99.90;;;;;;5094052;28;20063;-56
2021/08/18 06:31:53;;;;;;;12.13;8.48;;;15.40;99.90;;;;;;5083804;28;20044;-55
2021/08/18 06:34:20;;;;;;;16.23;13.15;;;15.40;99.90;;;;;;5079409;28;20052;-56
2021/08/18 06:36:49;;;;;;;21.45;18.10;;;15.40;99.90;;;;;;5084534;28;20141;-54
2021/08/18 06:39:18;;;;;;;13.57;10.13;;;15.40;99.90;;;;;;5086464;28;20503;-49
2021/08/18 06:41:49;;;;;;;15.77;12.32;;;15.40;99.90;;;;;;5084563;28;20079;-46
2021/08/18 06:44:18;;;;;;;17.95;13.02;;;15.40;99.90;;;;;;5076181;28;20052;-49
2021/08/18 06:46:47;;;;;;;18.52;12.93;;;15.60;99.90;;;;;;5076820;28;20150;-48
2021/08/18 06:49:13;;;;;;;12.27;6.40;;;15.50;99.90;;;;;;5065604;28;20056;-45
2021/08/18 06:51:42;;;;;;;12.57;8.10;;;15.60;99.90;;;;;;5080305;28;20079;-46
2021/08/18 06:54:15;;;;;;;11.15;7.68;;;15.70;99.90;;;;;;5086424;28;20131;-49
2021/08/18 06:56:41;;;;;;;10.18;5.78;;;15.90;99.90;;;;;;5096934;28;20044;-49
2021/08/18 06:59:10;;;;;;;9.73;6.40;;;15.90;99.90;;;;;;5086292;28;20098;-50
2021/08/18 07:01:36;;;;;;;8.68;6.00;;;16.00;99.90;;;;;;5086337;28;20048;-53
2021/08/18 07:04:05;;;;;;;8.65;5.60;;;16.00;99.90;;;;;;5067649;28;20483;-49
2021/08/18 07:06:31;;;;;;;12.32;8.60;;;16.20;99.90;;;;;;5086636;28;20058;-49
2021/08/18 07:08:58;;;;;;;13.85;6.60;;;16.30;99.90;;;;;;5087612;28;20118;-50
2021/08/18 07:11:24;;;;;;;10.35;6.00;;;16.40;99.90;;;;;;5090588;28;20186;-47
2021/08/18 07:14:00;;;;;;;11.68;6.57;;;16.50;99.90;;;;;;5082440;28;20823;-48
2021/08/18 07:16:32;;;;;;;9.30;6.00;;;16.50;99.90;;;;;;5080953;28;20044;-49
2021/08/18 07:18:59;;;;;;;10.87;6.63;;;16.50;99.90;;;;;;5082756;28;20086;-51
2021/08/18 07:21:33;;;;;;;14.73;12.63;;;16.60;99.90;;;;;;5087942;28;20337;-54
2021/08/18 07:24:02;;;;;;;46.95;40.03;;;16.80;99.90;;;;;;5088000;28;20040;-47
2021/08/18 07:26:28;;;;;;;34.42;27.98;;;16.80;99.90;;;;;;5066807;28;20481;-48
2021/08/18 07:29:00;;;;;;;27.48;21.90;;;16.80;99.90;;;;;;5090086;28;20047;-48
2021/08/18 07:31:32;;;;;;;16.10;10.57;;;17.00;99.90;;;;;;5093918;28;20420;-50
2021/08/18 07:33:58;;;;;;;20.50;13.95;;;17.00;99.90;;;;;;5085723;28;20419;-49
2021/08/18 07:36:27;;;;;;;12.10;7.50;;;17.20;99.90;;;;;;5087832;28;20048;-51
2021/08/18 07:38:54;;;;;;;12.32;9.57;;;17.20;99.90;;;;;;5084778;28;20048;-49
2021/08/18 07:41:22;;;;;;;13.95;10.43;;;17.30;99.90;;;;;;5092213;28;20040;-49
2021/08/18 07:43:51;;;;;;;9.40;6.53;;;17.30;99.90;;;;;;5071256;28;20493;-49
2021/08/18 07:46:22;;;;;;;14.38;7.05;;;17.20;99.90;;;;;;5086939;28;20040;-48
2021/08/18 07:48:51;;;;;;;16.20;7.57;;;17.30;99.90;;;;;;5077535;28;20066;-48
2021/08/18 07:51:25;;;;;;;31.13;24.65;;;17.40;99.90;;;;;;5085039;28;20047;-53
2021/08/18 07:53:56;;;;;;;16.10;11.23;;;17.40;99.90;;;;;;5049476;28;20056;-51
2021/08/18 07:56:31;;;;;;;46.95;41.70;;;17.40;99.90;;;;;;5084509;28;20082;-48
2021/08/18 07:59:01;;;;;;;22.85;15.88;;;17.40;99.90;;;;;;5061391;28;20068;-50
2021/08/18 08:01:30;;;;;;;23.80;18.15;;;17.40;99.90;;;;;;5047151;28;20048;-49
2021/08/18 08:03:56;;;;;;;13.48;9.40;;;17.30;99.90;;;;;;5044366;28;20068;-50
2021/08/18 08:06:23;;;;;;;13.80;8.88;;;17.30;99.90;;;;;;5040221;28;20076;-48
2021/08/18 08:08:54;;;;;;;11.35;8.23;;;17.30;99.90;;;;;;5045017;28;20642;-50
2021/08/18 08:11:23;;;;;;;7.80;5.43;;;17.30;99.90;;;;;;5064341;28;20048;-49
2021/08/18 08:13:53;;;;;;;7.50;5.30;;;17.30;99.90;;;;;;5045548;28;20749;-48
2021/08/18 08:16:22;;;;;;;9.13;6.13;;;17.30;99.90;;;;;;5057275;28;20049;-48
2021/08/18 08:18:48;;;;;;;6.80;4.68;;;17.30;99.90;;;;;;5057320;28;20684;-47
2021/08/18 08:21:17;;;;;;;9.65;6.75;;;17.20;99.90;;;;;;5046520;28;20079;-53
2021/08/18 08:23:48;;;;;;;13.55;10.30;;;17.30;99.90;;;;;;5048587;28;20053;-50
2021/08/18 08:26:19;;;;;;;10.88;7.53;;;17.20;99.90;;;;;;5042806;28;20538;-50
2021/08/18 08:28:49;;;;;;;10.63;7.88;;;17.30;99.90;;;;;;5053686;28;20071;-48
2021/08/18 08:31:15;;;;;;;11.48;8.57;;;17.30;99.90;;;;;;5054804;28;20106;-51
2021/08/18 08:33:42;;;;;;;7.78;6.45;;;17.30;99.90;;;;;;5063158;28;20478;-51
2021/08/18 08:36:10;;;;;;;9.40;4.78;;;17.40;99.90;;;;;;5047592;28;20163;-51
2021/08/18 08:38:37;;;;;;;8.52;6.10;;;17.40;99.90;;;;;;5046239;28;20141;-49
2021/08/18 08:41:05;;;;;;;9.35;7.20;;;17.60;99.90;;;;;;5041187;28;20044;-50
2021/08/18 08:43:34;;;;;;;8.88;4.22;;;17.60;99.90;;;;;;5056105;28;20068;-48
2021/08/18 08:46:03;;;;;;;7.25;4.78;;;17.70;99.90;;;;;;5052256;28;20045;-49
2021/08/18 08:48:31;;;;;;;7.25;4.50;;;17.70;99.90;;;;;;5055770;28;20051;-49
2021/08/18 08:50:58;;;;;;;9.23;4.65;;;17.70;99.90;;;;;;5055065;28;20053;-49
2021/08/18 08:53:29;;;;;;;6.60;3.90;;;17.80;99.90;;;;;;5049909;28;20228;-53
2021/08/18 08:55:57;;;;;;;73.13;62.45;;;17.80;99.90;;;;;;5049914;28;20041;-51
2021/08/18 08:58:28;;;;;;;44.13;39.42;;;18.00;99.90;;;;;;5049811;28;20056;-49
2021/08/18 09:00:57;;;;;;;18.92;14.57;;;18.00;99.90;;;;;;5060519;28;20048;-49
2021/08/18 09:03:26;;;;;;;11.65;7.15;;;17.90;99.90;;;;;;5053574;28;20049;-48
2021/08/18 09:05:59;;;;;;;6.18;4.30;;;18.10;99.90;;;;;;5050996;28;20060;-49
2021/08/18 09:08:27;;;;;;;11.20;6.55;;;18.20;99.90;;;;;;5056359;28;20048;-53
2021/08/18 09:11:15;;;;;;;6.80;4.40;;;18.40;99.90;;;;;;5053297;28;20750;-50
2021/08/18 09:13:44;;;;;;;7.78;5.75;;;18.50;99.90;;;;;;5054395;28;20040;-51
2021/08/18 09:16:12;;;;;;;7.60;5.07;;;18.60;99.90;;;;;;5063063;28;20059;-50
2021/08/18 09:18:59;;;;;;;7.80;5.00;;;18.80;99.90;;;;;;5076128;28;20077;-47
2021/08/18 09:21:28;;;;;;;7.63;4.35;;;18.70;99.90;;;;;;5053817;28;20124;-49
2021/08/18 09:24:13;;;;;;;8.50;5.35;;;18.80;99.90;;;;;;5050950;28;20551;-48
2021/08/18 09:26:54;;;;;;;7.25;4.30;;;18.90;99.90;;;;;;5049421;28;20069;-52
2021/08/18 09:29:26;;;;;;;5.35;3.90;;;18.90;99.90;;;;;;5051834;28;20451;-49
2021/08/18 09:31:55;;;;;;;6.75;4.10;;;19.00;99.90;;;;;;5048087;28;20157;-52
2021/08/18 09:34:25;;;;;;;7.75;4.10;;;18.70;99.90;;;;;;5052698;28;20513;-51
2021/08/18 09:37:08;;;;;;;6.40;3.30;;;18.80;99.90;;;;;;5062219;28;20140;-53
2021/08/18 09:39:38;;;;;;;5.30;3.85;;;18.90;99.90;;;;;;5043877;28;20123;-53
2021/08/18 09:42:25;;;;;;;11.35;5.47;;;18.90;99.90;;;;;;5038672;28;20056;-49
2021/08/18 09:45:19;;;;;;;5.70;3.80;;;18.90;99.90;;;;;;5048459;28;20052;-50
2021/08/18 09:48:00;;;;;;;23.60;19.60;;;18.90;99.90;;;;;;5055445;28;20053;-50
2021/08/18 09:50:41;;;;;;;8.10;4.97;;;19.00;99.90;;;;;;5052526;28;20048;-52
2021/08/18 09:53:27;;;;;;;7.30;5.07;;;19.10;99.90;;;;;;5059249;28;20051;-51
2021/08/18 09:55:58;;;;;;;10.80;8.07;;;19.30;99.90;;;;;;5049191;28;20381;-56
2021/08/18 09:58:25;;;;;;;6.05;4.00;;;19.40;99.90;;;;;;5064053;28;20059;-51
2021/08/18 10:00:53;;;;;;;8.40;4.85;;;19.30;99.90;;;;;;5044549;28;20052;-51
2021/08/18 10:03:20;;;;;;;5.88;4.47;;;19.40;99.90;;;;;;5028771;28;20520;-52
2021/08/18 10:05:50;;;;;;;8.13;4.70;;;19.50;99.90;;;;;;5041257;28;20055;-51
2021/08/18 10:08:18;;;;;;;6.43;4.20;;;19.50;99.90;;;;;;5040233;28;20596;-50
2021/08/18 10:10:47;;;;;;;8.13;4.63;;;19.50;99.90;;;;;;5042953;28;20063;-54
2021/08/18 10:13:18;;;;;;;7.70;3.83;;;19.50;99.90;;;;;;5037186;28;20613;-54
2021/08/18 10:15:47;;;;;;;5.63;4.15;;;19.40;99.90;;;;;;5047852;28;20048;-54
2021/08/18 10:18:26;;;;;;;7.13;5.60;;;19.40;99.90;;;;;;5050096;28;20126;-53
2021/08/18 10:20:56;;;;;;;9.48;7.15;;;19.50;99.90;;;;;;5034926;28;20138;-52
2021/08/18 10:23:40;;;;;;;11.05;5.07;;;19.60;99.90;;;;;;5048682;28;20064;-55
2021/08/18 10:26:26;;;;;;;6.38;5.32;;;19.40;99.90;;;;;;5048155;28;20055;-53
2021/08/18 10:29:16;;;;;;;7.47;5.00;;;19.40;99.90;;;;;;5049709;28;20091;-53
2021/08/18 10:31:51;;;;;;;6.55;4.72;;;19.40;99.90;;;;;;5065845;28;20055;-51
2021/08/18 10:34:26;;;;;;;6.43;5.00;;;19.50;99.90;;;;;;5065081;28;20095;-56
2021/08/18 10:37:01;;;;;;;5.20;4.35;;;19.50;99.90;;;;;;5050949;28;20102;-55
2021/08/18 10:39:34;;;;;;;6.88;5.22;;;19.60;99.90;;;;;;5050415;28;20125;-55
2021/08/18 10:42:13;;;;;;;7.20;5.30;;;19.70;99.90;;;;;;5071496;28;20051;-50
2021/08/18 10:44:42;;;;;;;6.00;4.82;;;19.60;99.90;;;;;;5041527;28;20363;-51
2021/08/18 10:47:11;;;;;;;6.15;4.65;;;19.70;99.90;;;;;;5054042;28;20045;-54
2021/08/18 10:49:38;;;;;;;6.40;4.30;;;19.80;99.90;;;;;;5038570;28;20048;-53
2021/08/18 10:52:05;;;;;;;6.72;4.82;;;19.70;99.90;;;;;;5034263;28;20049;-51
2021/08/18 10:54:33;;;;;;;8.27;5.65;;;19.70;99.90;;;;;;5032089;28;20133;-53
2021/08/18 10:57:04;;;;;;;6.22;4.80;;;19.70;99.90;;;;;;5029082;28;20049;-50
2021/08/18 10:59:37;;;;;;;8.20;4.90;;;19.80;99.90;;;;;;5069529;28;20064;-50
2021/08/18 11:02:29;;;;;;;5.40;4.53;;;20.00;99.90;;;;;;5084569;28;20047;-56
2021/08/18 11:05:12;;;;;;;7.32;5.30;;;20.00;99.90;;;;;;5085793;28;20055;-54
2021/08/18 11:08:03;;;;;;;6.70;5.03;;;20.00;99.90;;;;;;5086549;28;20060;-51
2021/08/18 11:10:34;;;;;;;7.43;5.07;;;20.20;99.90;;;;;;5085474;28;20052;-53
2021/08/18 11:13:02;;;;;;;7.43;6.47;;;20.20;99.90;;;;;;5084928;28;20046;-49
2021/08/18 11:15:30;;;;;;;8.75;4.68;;;20.40;99.90;;;;;;5086938;28;20044;-47
2021/08/18 11:17:59;;;;;;;6.75;5.13;;;20.70;99.90;;;;;;5088849;28;20089;-47
2021/08/18 11:20:28;;;;;;;6.93;5.13;;;20.90;99.90;;;;;;5089240;28;20154;-48
2021/08/18 11:22:56;;;;;;;7.43;5.80;;;21.00;99.90;;;;;;5086783;28;20040;-48
2021/08/18 11:25:24;;;;;;;8.45;4.88;;;21.10;99.90;;;;;;5073113;28;20044;-49
2021/08/18 11:27:58;;;;;;;6.63;5.63;;;21.30;99.90;;;;;;5092409;28;20089;-48
2021/08/18 11:30:31;;;;;;;5.85;4.53;;;21.30;99.90;;;;;;5088481;28;20048;-50
2021/08/18 11:33:18;;;;;;;5.82;4.85;;;21.20;99.90;;;;;;5084406;28;20048;-52
2021/08/18 11:35:49;;;;;;;6.70;5.30;;;21.00;99.90;;;;;;5087964;28;20135;-49
2021/08/18 11:38:21;;;;;;;6.10;4.95;;;20.80;99.90;;;;;;5087611;28;20154;-48
2021/08/18 11:40:52;;;;;;;6.57;3.47;;;20.70;99.90;;;;;;5087720;28;20417;-48
2021/08/18 11:43:36;;;;;;;5.68;3.22;;;20.40;99.90;;;;;;5085639;28;20044;-48
2021/08/18 11:46:05;;;;;;;5.70;2.65;;;20.50;99.90;;;;;;5092993;28;20109;-49
2021/08/18 11:48:37;;;;;;;5.68;3.25;;;20.40;99.90;;;;;;5087888;28;20873;-50
2021/08/18 11:51:19;;;;;;;5.10;3.20;;;20.30;99.90;;;;;;5069016;28;20073;-48
2021/08/18 11:53:55;;;;;;;9.70;3.53;;;20.70;99.90;;;;;;5081752;28;20052;-47
2021/08/18 11:56:33;;;;;;;5.45;2.90;;;20.90;99.90;;;;;;5089954;28;20051;-49
2021/08/18 11:59:06;;;;;;;4.90;2.70;;;20.90;99.90;;;;;;5069111;28;20467;-48
2021/08/18 12:01:46;;;;;;;7.57;2.50;;;21.20;99.90;;;;;;5086728;28;20044;-47
2021/08/18 12:04:20;;;;;;;3.63;2.08;;;21.50;99.90;;;;;;5074714;28;20143;-49
2021/08/18 12:07:14;;;;;;;4.20;2.42;;;21.70;99.90;;;;;;5086750;28;20059;-50
2021/08/18 12:10:21;;;;;;;3.72;2.10;;;21.90;99.90;;;;;;5086867;28;20044;-49
2021/08/18 12:13:03;;;;;;;3.08;2.10;;;21.80;99.90;;;;;;5081778;28;20078;-49
2021/08/18 12:15:35;;;;;;;5.97;2.78;;;22.30;99.90;;;;;;5090612;28;20040;-50
2021/08/18 12:18:04;;;;;;;3.97;2.28;;;22.30;99.90;;;;;;5088568;28;20054;-48
2021/08/18 12:20:33;;;;;;;3.78;2.63;;;22.20;99.90;;;;;;5091818;28;20075;-49
2021/08/18 12:23:03;;;;;;;5.00;2.50;;;22.00;99.90;;;;;;5077251;28;20062;-49
2021/08/18 12:25:34;;;;;;;;;;;21.70;99.90;;;;;;5091614;28;20039;-49
2021/08/18 12:28:17;;;;;;;4.10;3.03;;;21.50;99.90;;;;;;5090708;28;20680;-53
2021/08/18 12:31:05;;;;;;;4.97;3.38;;;21.30;99.90;;;;;;5070726;28;20447;-49
2021/08/18 12:33:37;;;;;;;6.72;3.53;;;21.20;99.90;;;;;;5083781;28;20052;-50
2021/08/18 12:36:05;;;;;;;6.15;3.83;;;21.10;99.90;;;;;;5069840;28;20052;-49
2021/08/18 12:38:31;;;;;;;8.98;4.10;;;20.90;99.90;;;;;;5089633;28;20043;-52
2021/08/18 12:41:08;;;;;;;5.88;4.20;;;20.80;99.90;;;;;;5081827;28;20051;-52
2021/08/18 12:43:35;;;;;;;8.57;4.95;;;20.90;99.90;;;;;;5072482;28;20503;-53
2021/08/18 12:46:04;;;;;;;5.60;4.65;;;21.00;99.90;;;;;;5092079;28;20048;-51
2021/08/18 12:48:35;;;;;;;7.30;4.03;;;20.90;99.90;;;;;;5086242;28;20063;-50
2021/08/18 12:51:13;;;;;;;5.90;3.80;;;21.00;99.90;;;;;;5090525;28;20548;-50
2021/08/18 12:53:41;;;;;;;5.80;4.35;;;20.90;99.90;;;;;;5096690;28;20040;-53
2021/08/18 12:56:10;;;;;;;6.80;5.85;;;20.80;99.90;;;;;;5091262;28;20904;-50